Twin Lakes, New Mexico
Current Conditions -  °F | °C
As of 1:53 AM on Monday 24 Nov 2014 (Local Time) from KGUP Reporting Station
Clear Clear  
Wind Chill: 14°   Ceiling: Unl
Heat Index: 14°   Visibility: 10mi
Dew Point: -1°   Wind: 0mph
Humidity: 52%   Direction: NA
Pressure: 30.17"   Gusts: NA
Location:  35.4315°N, 108.724°W
Report Text: KGUP 240853Z AUTO 00000KT 10SM CLR M10/M18 A3017 RMK AO2 SLP249 T11001183 52002
Loading
Personal Weather Stations






























Interactive Weather Map New forecast layout! Learn more

10-Day Weather Forecast

Advertisements
Track Severe Weather on mobile